Time;durP1;ratioP1;P1;durP2;ratioP2;P2;SDS_P1;SDS_P2;PMS_P1;PMS_P2;Temp;Humidity;BMP_temperature;BMP_pressure;BME280_temperature;BME280_humidity;BME280_pressure;Samples;Min_cycle;Max_cycle;Signal;HPM_P1;HPM_P2
2021/08/22 00:01:25;;;;;;;6.88;5.80;;;;;;;;;;10401887;28;20053;-81
2021/08/22 00:06:26;;;;;;;6.35;5.20;;;;;;;;;;10394831;28;20032;-81
2021/08/22 00:11:27;;;;;;;7.40;5.65;;;;;;;;;;10395562;28;20108;-82
2021/08/22 00:16:28;;;;;;;5.63;4.55;;;;;;;;;;10393935;28;20093;-82
2021/08/22 00:21:29;;;;;;;4.15;3.55;;;;;;;;;;10391833;28;20141;-82
2021/08/22 00:26:30;;;;;;;5.70;4.70;;;;;;;;;;10392073;28;20041;-81
2021/08/22 00:31:30;;;;;;;6.07;5.25;;;;;;;;;;10391374;28;20041;-82
2021/08/22 00:36:31;;;;;;;5.38;4.85;;;;;;;;;;10393017;28;20491;-81
2021/08/22 00:41:32;;;;;;;6.57;5.32;;;;;;;;;;10391282;28;20101;-81
2021/08/22 00:46:36;;;;;;;5.00;4.50;;;;;;;;;;10390584;28;20035;-81
2021/08/22 00:51:37;;;;;;;5.18;4.68;;;;;;;;;;10390618;28;20412;-82
2021/08/22 00:56:38;;;;;;;6.72;6.03;;;;;;;;;;10390920;28;20065;-82
2021/08/22 01:01:39;;;;;;;7.28;6.53;;;;;;;;;;10390367;28;20594;-82
2021/08/22 01:06:56;;;;;;;6.18;5.53;;;;;;;;;;10389807;28;20484;-82
2021/08/22 01:11:59;;;;;;;6.57;5.25;;;;;;;;;;10390594;28;20034;-82
2021/08/22 01:17:01;;;;;;;5.68;4.72;;;;;;;;;;10388810;28;20045;-82
2021/08/22 01:22:05;;;;;;;6.70;4.80;;;;;;;;;;10389199;28;20045;-82
2021/08/22 01:27:07;;;;;;;4.63;4.03;;;;;;;;;;10388763;28;20030;-82
2021/08/22 01:32:10;;;;;;;5.03;3.85;;;;;;;;;;10389538;28;20125;-82
2021/08/22 01:37:11;;;;;;;4.43;3.83;;;;;;;;;;10389753;28;20076;-82
2021/08/22 01:42:13;;;;;;;5.30;3.22;;;;;;;;;;10391399;28;20042;-82
2021/08/22 01:47:14;;;;;;;4.10;3.35;;;;;;;;;;10389293;28;20121;-83
2021/08/22 01:52:16;;;;;;;4.57;3.45;;;;;;;;;;10390076;28;20507;-81
2021/08/22 01:57:17;;;;;;;4.47;3.65;;;;;;;;;;10388327;28;20034;-82
2021/08/22 02:02:18;;;;;;;5.07;3.22;;;;;;;;;;10385587;28;20136;-82
2021/08/22 02:07:24;;;;;;;5.35;3.78;;;;;;;;;;10387244;28;20042;-82
2021/08/22 02:12:25;;;;;;;4.03;3.10;;;;;;;;;;10390515;28;20034;-82
2021/08/22 02:17:28;;;;;;;4.40;3.30;;;;;;;;;;10385731;28;20026;-81
2021/08/22 02:22:30;;;;;;;4.47;3.20;;;;;;;;;;10385829;28;20034;-81
2021/08/22 02:27:31;;;;;;;6.00;3.83;;;;;;;;;;10384966;28;20053;-81
2021/08/22 02:32:32;;;;;;;3.70;3.30;;;;;;;;;;10386286;28;20041;-81
2021/08/22 02:37:34;;;;;;;4.10;3.30;;;;;;;;;;10388952;28;20137;-81
2021/08/22 02:42:35;;;;;;;4.57;3.30;;;;;;;;;;10387452;28;20037;-81
2021/08/22 02:47:36;;;;;;;5.18;4.05;;;;;;;;;;10398835;28;20034;-80
2021/08/22 02:52:37;;;;;;;5.00;3.40;;;;;;;;;;10400480;28;20030;-81
2021/08/22 02:57:38;;;;;;;4.63;3.22;;;;;;;;;;10395531;28;20046;-81
2021/08/22 03:02:39;;;;;;;4.47;3.45;;;;;;;;;;10389196;28;20048;-81
2021/08/22 03:07:40;;;;;;;3.75;3.05;;;;;;;;;;10399922;28;20038;-82
2021/08/22 03:12:41;;;;;;;4.10;3.38;;;;;;;;;;10400987;28;20033;-82
2021/08/22 03:17:42;;;;;;;4.80;3.97;;;;;;;;;;10392191;28;20034;-81
2021/08/22 03:22:44;;;;;;;4.32;3.22;;;;;;;;;;10393049;28;20041;-82
2021/08/22 03:27:45;;;;;;;6.82;4.10;;;;;;;;;;10392856;28;20440;-82
2021/08/22 03:32:46;;;;;;;6.38;4.38;;;;;;;;;;10393536;28;20088;-82
2021/08/22 03:37:47;;;;;;;5.47;3.78;;;;;;;;;;10390598;28;20128;-82
2021/08/22 03:42:48;;;;;;;4.95;3.42;;;;;;;;;;10391253;28;20038;-82
2021/08/22 03:47:49;;;;;;;5.40;3.55;;;;;;;;;;10392813;28;20038;-81
2021/08/22 03:52:52;;;;;;;4.30;3.80;;;;;;;;;;10390880;28;20128;-81
2021/08/22 03:57:52;;;;;;;5.82;4.53;;;;;;;;;;10394072;28;20047;-82
2021/08/22 04:02:53;;;;;;;6.40;5.70;;;;;;;;;;10394090;28;20038;-82
2021/08/22 04:07:55;;;;;;;6.35;5.00;;;;;;;;;;10397047;28;20085;-81
2021/08/22 04:12:57;;;;;;;7.68;6.57;;;;;;;;;;10393304;28;20045;-82
2021/08/22 04:17:58;;;;;;;6.93;5.45;;;;;;;;;;10392557;28;20077;-82
2021/08/22 04:22:58;;;;;;;15.30;12.73;;;;;;;;;;10399894;28;20030;-82
2021/08/22 04:27:59;;;;;;;15.25;11.40;;;;;;;;;;10392005;28;20040;-81
2021/08/22 04:33:00;;;;;;;15.07;13.18;;;;;;;;;;10389819;28;20448;-81
2021/08/22 04:38:01;;;;;;;11.85;10.13;;;;;;;;;;10390722;28;20034;-81
2021/08/22 04:43:02;;;;;;;19.02;15.63;;;;;;;;;;10390172;28;20049;-82
2021/08/22 04:48:04;;;;;;;30.02;25.33;;;;;;;;;;10391489;28;20026;-81
2021/08/22 04:53:04;;;;;;;22.95;19.92;;;;;;;;;;10389259;28;20128;-81
2021/08/22 04:58:05;;;;;;;24.17;21.58;;;;;;;;;;10387884;28;20080;-81
2021/08/22 05:03:06;;;;;;;24.92;21.13;;;;;;;;;;10394093;28;20057;-82
2021/08/22 05:08:07;;;;;;;20.83;18.65;;;;;;;;;;10392305;28;20041;-82
2021/08/22 05:13:08;;;;;;;23.95;19.48;;;;;;;;;;10391254;28;20041;-82
2021/08/22 05:18:09;;;;;;;24.83;22.15;;;;;;;;;;10389598;28;20046;-82
2021/08/22 05:23:10;;;;;;;24.52;20.38;;;;;;;;;;10390972;28;20163;-81
2021/08/22 05:28:11;;;;;;;24.95;21.30;;;;;;;;;;10390646;28;20034;-81
2021/08/22 05:33:12;;;;;;;18.65;16.73;;;;;;;;;;10387828;28;20057;-82
2021/08/22 05:38:13;;;;;;;21.98;19.60;;;;;;;;;;10399307;28;20056;-82
2021/08/22 05:43:14;;;;;;;17.98;16.08;;;;;;;;;;10402589;28;20060;-81
2021/08/22 05:48:15;;;;;;;15.90;14.20;;;;;;;;;;10403852;28;20068;-81
2021/08/22 05:53:16;;;;;;;19.25;17.25;;;;;;;;;;10396384;28;20206;-82
2021/08/22 05:58:18;;;;;;;16.27;14.50;;;;;;;;;;10372235;28;20057;-82
2021/08/22 06:03:19;;;;;;;18.80;16.70;;;;;;;;;;10390704;28;20038;-82
2021/08/22 06:08:20;;;;;;;17.77;15.75;;;;;;;;;;10393632;28;20057;-82
2021/08/22 06:13:21;;;;;;;13.77;12.38;;;;;;;;;;10393166;28;20065;-82
2021/08/22 06:18:22;;;;;;;18.00;16.00;;;;;;;;;;10388121;28;20488;-82
2021/08/22 06:23:23;;;;;;;13.10;11.85;;;;;;;;;;10387552;28;20113;-82
2021/08/22 06:28:24;;;;;;;17.42;15.63;;;;;;;;;;10386820;28;20034;-82
2021/08/22 06:33:25;;;;;;;16.45;14.75;;;;;;;;;;10388382;28;20124;-82
2021/08/22 06:38:26;;;;;;;10.90;9.80;;;;;;;;;;10388239;28;20034;-82
2021/08/22 06:43:27;;;;;;;14.15;12.57;;;;;;;;;;10390948;28;20081;-82
2021/08/22 06:48:28;;;;;;;15.68;14.05;;;;;;;;;;10394909;28;20033;-83
2021/08/22 06:53:29;;;;;;;13.40;12.02;;;;;;;;;;10394473;28;20030;-82
2021/08/22 06:58:30;;;;;;;22.90;19.25;;;;;;;;;;10392567;28;20098;-82
2021/08/22 07:03:30;;;;;;;22.25;18.88;;;;;;;;;;10392807;28;20043;-82
2021/08/22 07:08:31;;;;;;;24.67;19.48;;;;;;;;;;10392524;28;20037;-82
2021/08/22 07:13:33;;;;;;;19.52;15.43;;;;;;;;;;10392677;28;20045;-81
2021/08/22 07:18:34;;;;;;;18.10;15.68;;;;;;;;;;10390727;28;20064;-82
2021/08/22 07:23:35;;;;;;;26.13;22.83;;;;;;;;;;10390206;28;20045;-82
2021/08/22 07:28:36;;;;;;;25.73;22.13;;;;;;;;;;10390891;28;20125;-82
2021/08/22 07:33:37;;;;;;;21.00;18.40;;;;;;;;;;10391982;28;20042;-82
2021/08/22 07:38:38;;;;;;;26.67;23.77;;;;;;;;;;10393650;28;20042;-82
2021/08/22 07:43:39;;;;;;;20.20;18.10;;;;;;;;;;10393654;28;20045;-82
2021/08/22 07:48:40;;;;;;;24.23;19.30;;;;;;;;;;10393750;28;20036;-82
2021/08/22 07:54:09;;;;;;;20.23;17.90;;;;;;;;;;10396919;28;20572;-82
2021/08/22 07:59:20;;;;;;;19.13;17.13;;;;;;;;;;10398350;28;20151;-83
2021/08/22 08:04:22;;;;;;;18.95;16.92;;;;;;;;;;10397679;28;20069;-84
2021/08/22 08:09:32;;;;;;;20.98;18.77;;;;;;;;;;10400439;28;20037;-82
2021/08/22 08:14:34;;;;;;;16.33;14.75;;;;;;;;;;10383657;28;20038;-82
2021/08/22 08:19:36;;;;;;;14.65;13.25;;;;;;;;;;10391560;28;20033;-83
2021/08/22 08:24:39;;;;;;;16.48;14.10;;;;;;;;;;10392838;28;20081;-82
2021/08/22 08:29:40;;;;;;;16.98;15.27;;;;;;;;;;10379071;28;20042;-82
2021/08/22 08:34:41;;;;;;;14.52;13.23;;;;;;;;;;10407989;28;20068;-82
2021/08/22 08:39:42;;;;;;;14.65;13.15;;;;;;;;;;10405764;28;20095;-83
2021/08/22 08:44:43;;;;;;;12.90;11.70;;;;;;;;;;10396782;28;20034;-83
2021/08/22 08:50:04;;;;;;;13.75;12.35;;;;;;;;;;10393871;28;20045;-82
2021/08/22 08:55:05;;;;;;;12.38;11.27;;;;;;;;;;10395237;28;20041;-82
2021/08/22 09:00:13;;;;;;;11.55;10.45;;;;;;;;;;10396685;28;20206;-82
2021/08/22 09:05:33;;;;;;;11.55;10.45;;;;;;;;;;10390899;28;20489;-82
2021/08/22 09:10:53;;;;;;;10.43;9.33;;;;;;;;;;10388949;28;20060;-82
2021/08/22 09:16:00;;;;;;;9.27;8.30;;;;;;;;;;10386722;28;20040;-82
2021/08/22 09:21:11;;;;;;;8.35;7.45;;;;;;;;;;10397609;28;20383;-83
2021/08/22 09:26:31;;;;;;;8.00;7.18;;;;;;;;;;10396176;28;20143;-83
2021/08/22 09:31:41;;;;;;;7.72;6.88;;;;;;;;;;10396778;28;20062;-85
2021/08/22 09:37:01;;;;;;;6.60;6.00;;;;;;;;;;10393583;28;20037;-82
2021/08/22 09:42:02;;;;;;;6.13;5.50;;;;;;;;;;10394410;28;20046;-83
2021/08/22 09:47:15;;;;;;;6.97;5.50;;;;;;;;;;10393760;28;20061;-83
2021/08/22 09:52:38;;;;;;;6.22;4.72;;;;;;;;;;10393316;28;20034;-83
2021/08/22 09:57:42;;;;;;;8.25;5.18;;;;;;;;;;10395043;28;20088;-83
2021/08/22 10:03:12;;;;;;;8.02;4.55;;;;;;;;;;10393347;28;20084;-83
2021/08/22 10:08:13;;;;;;;5.22;4.20;;;;;;;;;;10374683;28;20088;-83
2021/08/22 10:13:14;;;;;;;4.97;4.20;;;;;;;;;;10392970;28;20057;-83
2021/08/22 10:18:24;;;;;;;5.18;4.50;;;;;;;;;;10391336;28;20026;-82
2021/08/22 10:23:38;;;;;;;6.13;4.60;;;;;;;;;;10399991;28;20068;-82
2021/08/22 10:28:45;;;;;;;4.75;4.13;;;;;;;;;;10398057;28;20033;-83
2021/08/22 10:34:05;;;;;;;4.80;3.92;;;;;;;;;;10400277;28;20105;-84
2021/08/22 10:39:30;;;;;;;4.70;4.20;;;;;;;;;;10398113;28;20037;-84
2021/08/22 10:44:36;;;;;;;6.80;4.20;;;;;;;;;;10398408;28;20038;-83
2021/08/22 10:49:55;;;;;;;5.20;4.03;;;;;;;;;;10398712;28;20034;-83
2021/08/22 10:55:11;;;;;;;5.53;4.32;;;;;;;;;;10397761;28;20056;-82
2021/08/22 11:00:21;;;;;;;6.65;3.88;;;;;;;;;;10395995;28;20038;-83
2021/08/22 11:05:27;;;;;;;4.38;3.78;;;;;;;;;;10398665;28;20037;-83
2021/08/22 11:10:28;;;;;;;4.30;3.63;;;;;;;;;;10399045;28;20084;-84
2021/08/22 11:15:31;;;;;;;5.28;4.30;;;;;;;;;;10400134;28;20037;-84
2021/08/22 11:42:06;;;;;;;4.43;3.20;;;;;;;;;;10421958;28;20104;-86
2021/08/22 11:47:07;;;;;;;4.55;3.03;;;;;;;;;;10404914;28;20014;-86
2021/08/22 11:52:08;;;;;;;4.75;3.00;;;;;;;;;;10404048;28;20065;-86
2021/08/22 11:57:17;;;;;;;6.10;3.08;;;;;;;;;;10403084;28;20447;-85
2021/08/22 12:02:19;;;;;;;3.97;2.70;;;;;;;;;;10403834;28;20081;-85
2021/08/22 12:07:21;;;;;;;4.97;2.90;;;;;;;;;;10402573;28;20029;-86
2021/08/22 12:12:22;;;;;;;5.90;3.10;;;;;;;;;;10399844;28;20042;-85
2021/08/22 12:17:23;;;;;;;3.95;2.70;;;;;;;;;;10402379;28;20037;-86
2021/08/22 12:22:28;;;;;;;3.85;2.90;;;;;;;;;;10400823;28;20041;-85
2021/08/22 12:27:31;;;;;;;4.15;2.45;;;;;;;;;;10391997;28;20034;-86
2021/08/22 12:32:41;;;;;;;5.25;2.97;;;;;;;;;;10384100;28;20030;-86
2021/08/22 12:37:44;;;;;;;4.43;2.83;;;;;;;;;;10368954;28;20049;-86
2021/08/22 12:42:45;;;;;;;3.80;2.67;;;;;;;;;;10384814;28;20038;-87
2021/08/22 12:47:46;;;;;;;5.32;3.08;;;;;;;;;;10386017;28;20034;-86
2021/08/22 12:52:47;;;;;;;3.40;2.70;;;;;;;;;;10384657;28;20034;-86
2021/08/22 12:57:48;;;;;;;6.00;3.20;;;;;;;;;;10386811;28;20065;-86
2021/08/22 13:02:48;;;;;;;5.10;2.65;;;;;;;;;;10383343;28;20042;-86
2021/08/22 13:07:49;;;;;;;3.80;2.90;;;;;;;;;;10384631;28;20034;-86
2021/08/22 13:12:50;;;;;;;4.18;3.20;;;;;;;;;;10384373;28;20092;-86
2021/08/22 13:17:51;;;;;;;4.45;3.00;;;;;;;;;;10382549;28;20037;-86
2021/08/22 13:22:52;;;;;;;4.32;3.13;;;;;;;;;;10379823;28;20038;-86
2021/08/22 13:27:53;;;;;;;5.68;3.00;;;;;;;;;;10379679;28;20042;-86
2021/08/22 13:32:54;;;;;;;4.60;3.00;;;;;;;;;;10381189;28;20112;-87
2021/08/22 13:37:55;;;;;;;3.85;2.58;;;;;;;;;;10387269;28;20065;-86
2021/08/22 15:39:09;;;;;;;5.38;3.38;;;;;;;;;;13010183;22;1189058;-91
2021/08/22 15:44:11;;;;;;;4.90;3.70;;;;;;;;;;12919699;23;20034;-91
2021/08/22 15:49:12;;;;;;;4.63;3.85;;;;;;;;;;12918547;23;20008;-90
2021/08/22 15:54:13;;;;;;;4.45;3.47;;;;;;;;;;12908239;23;20012;-91
2021/08/22 15:59:14;;;;;;;5.10;3.50;;;;;;;;;;12910937;23;20083;-90
2021/08/22 16:04:16;;;;;;;3.78;2.97;;;;;;;;;;12956472;22;20020;-90
2021/08/22 16:09:17;;;;;;;5.43;2.97;;;;;;;;;;12915565;23;20392;-90
2021/08/22 16:14:21;;;;;;;3.83;2.88;;;;;;;;;;12901486;23;20004;-89
2021/08/22 16:19:22;;;;;;;3.47;3.10;;;;;;;;;;12900789;23;20016;-88
2021/08/22 16:24:23;;;;;;;4.10;2.90;;;;;;;;;;12902515;23;20001;-87
2021/08/22 16:29:33;;;;;;;3.20;2.63;;;;;;;;;;12901438;23;20004;-88
2021/08/22 16:34:34;;;;;;;3.15;2.65;;;;;;;;;;12899989;23;20004;-88
2021/08/22 16:39:35;;;;;;;3.00;2.53;;;;;;;;;;12901169;23;20371;-89
2021/08/22 16:44:39;;;;;;;4.93;3.13;;;;;;;;;;12900132;23;20008;-88
2021/08/22 16:49:43;;;;;;;3.67;2.45;;;;;;;;;;12900917;23;20007;-89
2021/08/22 16:54:53;;;;;;;3.30;2.70;;;;;;;;;;12900037;23;20015;-89
2021/08/22 16:59:54;;;;;;;5.72;3.55;;;;;;;;;;12900090;23;20036;-89
2021/08/22 17:04:55;;;;;;;3.13;2.67;;;;;;;;;;12899494;23;20027;-89
2021/08/22 17:10:05;;;;;;;9.05;7.10;;;;;;;;;;12891054;23;20012;-89
2021/08/22 17:15:07;;;;;;;4.82;3.00;;;;;;;;;;12902291;23;20012;-89
